FFX weather

Fremont Municipal Airport
Fremont, Michigan, United States

Public forecast

Using degrees Fahrenheit for public forecast. Weather courtesy of forecast.io.

Current aviation weather report (METAR) for Fremont Municipal Airport

Retrieved 2020/08/07 23:35 UTC (13 minutes ago):

KFFX 072335Z AUTO 27006KT 10SM CLR 24/13 A3015 RMK AO2 T02420127

Closest aviation forecast (TAF) to Fremont Municipal Airport

Closest forecast is Muskegon County Airport, 19.4 nm (35.9 km) SSW. Retrieved 2020/08/07 18:42 UTC (5 hours ago):

TAF KMKG 071740Z 0718/0818 21006KT P6SM SKC FM080000 VRB03KT P6SM SKC FM081200 18010KT P6SM FEW250